Detall de PIREP

Printer-friendly versionPDF version

[2012/08/26 18:24:00]
Flight IATA:CT1003
Pilot Number:026
Company ICAO:CAT
Aircraft Type:DC85/A
PAX:0
Aircraft Registration:CARGO
Departing Airport: ENGM
Destination Airport: LEGE
Alternate Airport:LEBL
Online: VATSIM
Route:TOR P601 VES N873 TUSKA UN873 JUIST UP174 WOODY UN872 KOVIN UY317 RESMI UN857 DIRMO UN855 KANIG
Flight Level:F350
No Slew and time accel
No pause
Crash detect
Detect pilot in Cockpit between each 30 and 45 minutes
18:24 Zero fuel Weight: 187755 Lbs, Fuel Weight: 47777 Lbs
18:24 VATSIM:ENGM 261742Z 35010KT 280V020 9999 FEW029 SCT035 13/06 Q1004 TEMPO 35015G25KT
18:24 VATSIM:LEGE 261800Z 20010KT 170V230 9999 FEW020 SCT030 23/15 Q1019
18:24 VOICE CATALONIAN / CPT ENOS VATEUD PILOT
18:42 Parking Brakes off
18:48 Take-off
18:48 Take off Weight: 234362 Lbs
18:48 Wind: 016º @ 007 Knots Heading: 016º
18:48 POS N60º 12´ 26´´ E011º 05´ 12´´
18:48 Flaps:2at 156 Knots
18:48 Gear Up: 157 Knots
18:49 Flaps:1 at 191 Knots
18:51 Flaps:0 at 208 Knots
19:03 Wind:007º@019 Knots Heading: 203º Ground Speed: 483 Knots Altitude 24786 ft
19:16 TOC
19:16 Fuel Weight: 38291 Lb
19:18 Wind:262º@039 Knots Heading: 193º Ground Speed: 470 Knots Altitude 34875 ft
19:22 TOD
19:22 Fuel Weight: 36922 Lb
19:23 TOC
19:23 Fuel Weight: 36818 Lb
19:33 Wind:303º@054 Knots Heading: 243º Ground Speed: 445 Knots Altitude 34944 ft
19:48 Wind:302º@028 Knots Heading: 207º Ground Speed: 476 Knots Altitude 35042 ft
20:03 Wind:281º@016 Knots Heading: 219º Ground Speed: 466 Knots Altitude 35147 ft
21:04 TOD
21:04 Fuel Weight: 15181 Lb
21:18 Wind:319º@020 Knots Heading: 161º Ground Speed: 389 Knots Altitude 16505 ft
21:28 Flaps:1 at 185 Knots
21:32 Gear Down: 214 Knots
21:33 Wind:238º@000 Knots Heading: 194º Ground Speed: 183 Knots Altitude 2470 ft
21:33 Flaps:2 at 156 Knots
21:33 Flaps:3 at 155 Knots
21:34 Flaps:4 at 138 Knots
21:35 Flaps:5 at 130 Knots
21:35 TouchDown:Rate -446 ft/min Speed: 117 Knots
21:36 VATSIM:LEGE 262100Z 00000KT 9999 FEW028 21/15 Q1021
21:36 Land
21:36 Wind:185º@000 Knots
21:36 Heading: 195º
21:36 Flight Duration: 02:48
21:36 Landing Weight: 199333 Lbs
21:36 POS N41º 54´ 22´´ E002º 45´ 45´´
21:41 Parking brakes on
21:41 Block to Block Duration: 02:59
21:41 Final Fuel: 11155 Lbls
21:41 Spent Fuel: 36622 Lbls
21:41 Flight Length: 750 NM
21:41 TOD Land Length: 79 NM

Exportar CSV

Powered by Drupal - Modified by Danger4k